Time;durP1;ratioP1;P1;durP2;ratioP2;P2;SDS_P1;SDS_P2;PMS_P1;PMS_P2;Temp;Humidity;BMP_temperature;BMP_pressure;BME280_temperature;BME280_humidity;BME280_pressure;Samples;Min_cycle;Max_cycle;Signal;HPM_P1;HPM_P2
2022/06/26 00:00:37;;;;;;;;;;;;;;;;;;;;;
2022/06/26 00:03:42;;;;;;;15.55;14.07;;;18.30;99.90;;;;;;6122177;23;20517;-87
2022/06/26 00:10:58;;;;;;;;;;;;;;;;;;;;;
2022/06/26 00:13:34;;;;;;;15.60;14.00;;;18.20;99.90;;;;;;6147449;23;20019;-87
2022/06/26 00:20:02;;;;;;;13.48;12.20;;;18.20;99.90;;;;;;6062150;23;20022;-86
2022/06/26 00:22:42;;;;;;;15.75;14.15;;;18.20;99.90;;;;;;6073471;23;20014;-88
2022/06/26 00:25:08;;;;;;;16.08;14.52;;;18.20;99.90;;;;;;6071808;23;20437;-87
2022/06/26 00:27:36;;;;;;;15.73;14.23;;;18.20;99.90;;;;;;6073782;23;20530;-88
2022/06/26 00:30:02;;;;;;;16.17;14.68;;;18.20;99.90;;;;;;6074475;23;20076;-87
2022/06/26 00:32:30;;;;;;;16.90;15.20;;;18.20;99.90;;;;;;6073520;23;20163;-87
2022/06/26 00:34:56;;;;;;;17.83;15.32;;;18.20;99.90;;;;;;6074704;23;20371;-87
2022/06/26 00:37:22;;;;;;;16.70;15.05;;;18.10;99.90;;;;;;6072727;23;20021;-87
2022/06/26 00:39:50;;;;;;;17.60;15.90;;;18.10;99.90;;;;;;6073931;23;20014;-87
2022/06/26 00:42:16;;;;;;;19.08;17.17;;;18.10;99.90;;;;;;6073583;23;20014;-87
2022/06/26 00:44:44;;;;;;;19.17;17.27;;;18.10;99.90;;;;;;6073318;23;20065;-87
2022/06/26 00:47:13;;;;;;;21.55;18.17;;;18.00;99.90;;;;;;6135200;23;20026;-87
2022/06/26 00:49:44;;;;;;;19.20;17.17;;;17.80;99.90;;;;;;6188060;23;20307;-87
2022/06/26 00:52:14;;;;;;;19.63;17.67;;;18.10;99.90;;;;;;6163959;23;20028;-88
2022/06/26 00:54:44;;;;;;;21.08;18.88;;;17.90;99.90;;;;;;6188357;23;20048;-87
2022/06/26 00:57:12;;;;;;;21.02;18.77;;;18.00;99.90;;;;;;6212662;23;20016;-87
2022/06/26 00:59:39;;;;;;;21.38;19.27;;;18.00;99.90;;;;;;6187478;23;20009;-87
2022/06/26 01:02:06;;;;;;;21.17;18.95;;;17.90;99.90;;;;;;6163406;23;20303;-87
2022/06/26 01:04:33;;;;;;;22.65;20.13;;;17.90;99.90;;;;;;6187261;23;20333;-87
2022/06/26 01:07:02;;;;;;;23.25;20.77;;;17.90;99.90;;;;;;6187452;23;20019;-87
2022/06/26 01:09:28;;;;;;;22.90;20.42;;;17.90;99.90;;;;;;6163489;23;20013;-87
2022/06/26 01:12:02;;;;;;;24.33;21.23;;;17.80;99.90;;;;;;6163008;23;20091;-87
2022/06/26 01:14:30;;;;;;;23.38;21.05;;;17.80;99.90;;;;;;6187584;23;20019;-87
2022/06/26 01:16:59;;;;;;;23.85;21.30;;;17.90;99.90;;;;;;6187191;23;20052;-87
2022/06/26 01:19:26;;;;;;;20.08;17.67;;;17.90;99.90;;;;;;6187084;23;20013;-87
2022/06/26 01:21:58;;;;;;;18.80;16.80;;;17.80;99.90;;;;;;6163851;23;20008;-87
2022/06/26 01:24:27;;;;;;;19.85;17.85;;;17.80;99.90;;;;;;6165184;23;20012;-87
2022/06/26 01:26:53;;;;;;;20.50;18.40;;;17.80;99.90;;;;;;6188683;23;20012;-88
2022/06/26 01:29:21;;;;;;;21.85;19.50;;;17.70;99.90;;;;;;6189370;23;20463;-89
2022/06/26 01:31:53;;;;;;;20.92;17.95;;;17.80;99.90;;;;;;6189532;23;20463;-90
2022/06/26 01:34:18;;;;;;;20.33;18.08;;;17.70;99.90;;;;;;6163350;23;20020;-87
2022/06/26 01:36:49;;;;;;;21.58;19.20;;;17.90;99.90;;;;;;6189650;23;20047;-88
2022/06/26 01:39:21;;;;;;;21.42;19.20;;;17.90;99.90;;;;;;6188454;23;20009;-88
2022/06/26 01:41:50;;;;;;;20.92;18.75;;;18.00;99.90;;;;;;6189858;23;20404;-88
2022/06/26 01:44:16;;;;;;;20.58;18.40;;;18.10;99.90;;;;;;6160625;23;20048;-88
2022/06/26 01:46:42;;;;;;;19.17;17.20;;;18.20;99.90;;;;;;6211981;23;20017;-88
2022/06/26 01:49:16;;;;;;;20.20;18.02;;;18.20;99.90;;;;;;6185994;23;20048;-89
2022/06/26 01:51:45;;;;;;;24.30;18.92;;;18.20;99.90;;;;;;6211877;23;20016;-87
2022/06/26 01:54:11;;;;;;;20.25;18.10;;;18.30;99.90;;;;;;6185019;23;20107;-87
2022/06/26 01:56:43;;;;;;;18.80;16.85;;;18.30;99.90;;;;;;6189418;23;20039;-88
2022/06/26 01:59:08;;;;;;;18.25;16.45;;;18.40;99.90;;;;;;6187596;23;20013;-88
2022/06/26 02:01:34;;;;;;;19.88;16.30;;;18.30;99.90;;;;;;6188056;23;20012;-87
2022/06/26 02:04:00;;;;;;;19.70;15.18;;;18.40;99.90;;;;;;6186434;23;20012;-87
2022/06/26 02:06:26;;;;;;;17.73;15.88;;;18.40;99.90;;;;;;6188279;23;20103;-88
2022/06/26 02:08:52;;;;;;;18.27;15.38;;;18.30;99.90;;;;;;6186846;23;20012;-87
2022/06/26 02:14:44;;;;;;;18.70;15.43;;;18.30;99.90;;;;;;6213966;23;20715;-88
2022/06/26 02:17:23;;;;;;;16.17;13.98;;;18.70;99.90;;;;;;6214498;23;20031;-88
2022/06/26 02:19:48;;;;;;;15.48;13.90;;;18.40;99.90;;;;;;6184964;23;20378;-88
2022/06/26 02:22:17;;;;;;;19.90;14.45;;;18.40;99.90;;;;;;6162018;23;20040;-88
2022/06/26 02:24:45;;;;;;;16.50;13.80;;;18.40;99.90;;;;;;6161944;23;20063;-88
2022/06/26 02:27:11;;;;;;;18.00;13.98;;;18.40;99.90;;;;;;6163828;23;20103;-88
2022/06/26 02:30:00;;;;;;;;;;;;;;;;;;;;;
2022/06/26 02:32:29;;;;;;;15.45;13.90;;;18.50;99.90;;;;;;6210918;23;20016;-87
2022/06/26 02:34:55;;;;;;;14.93;12.73;;;18.40;99.90;;;;;;6186037;23;20048;-87
2022/06/26 02:37:24;;;;;;;15.82;13.45;;;18.50;99.90;;;;;;6185916;23;20019;-87
2022/06/26 02:39:49;;;;;;;18.00;14.25;;;18.40;99.90;;;;;;6136843;23;20442;-88
2022/06/26 02:56:11;;;;;;;17.23;11.38;;;18.50;99.90;;;;;;5651955;22;15281125;-96
2022/06/26 02:58:39;;;;;;;15.30;11.35;;;18.20;99.90;;;;;;6229656;22;20019;-96
2022/06/26 03:01:05;;;;;;;12.60;10.98;;;18.20;99.90;;;;;;6230563;22;20015;-96
2022/06/26 03:03:31;;;;;;;12.75;9.95;;;18.10;99.90;;;;;;6247480;22;20041;-94
2022/06/26 03:05:57;;;;;;;12.45;10.13;;;17.90;99.90;;;;;;6244552;22;20306;-96
2022/06/26 03:08:23;;;;;;;10.52;8.80;;;17.90;99.90;;;;;;6218099;22;20156;-96
2022/06/26 03:10:50;;;;;;;10.73;8.80;;;18.10;99.90;;;;;;6242246;22;20015;-95
2022/06/26 03:13:16;;;;;;;12.05;8.35;;;17.80;99.90;;;;;;6243003;22;20011;-94
2022/06/26 03:15:42;;;;;;;12.32;8.35;;;17.70;99.90;;;;;;6242228;22;20121;-92
2022/06/26 03:18:10;;;;;;;8.90;7.50;;;18.00;99.90;;;;;;6243075;22;20011;-96
2022/06/26 03:20:41;;;;;;;10.60;6.78;;;17.30;99.90;;;;;;6247014;22;20454;-96
2022/06/26 03:23:07;;;;;;;9.90;7.50;;;17.90;99.90;;;;;;6245344;22;20345;-96
2022/06/26 03:25:33;;;;;;;9.45;7.90;;;17.90;99.90;;;;;;6273134;22;20019;-96
2022/06/26 03:27:59;;;;;;;10.38;6.50;;;17.80;99.90;;;;;;6248013;22;20039;-96
2022/06/26 03:30:25;;;;;;;6.93;6.13;;;17.90;99.90;;;;;;6248286;22;20064;-96
2022/06/26 03:32:51;;;;;;;8.02;5.18;;;17.90;99.90;;;;;;6249103;22;20034;-96
2022/06/26 03:35:18;;;;;;;7.22;6.20;;;17.70;99.90;;;;;;6274356;22;20063;-96
2022/06/26 03:37:44;;;;;;;8.38;5.55;;;17.70;99.90;;;;;;6247067;22;20344;-94
2022/06/26 03:40:11;;;;;;;7.03;5.68;;;18.00;99.90;;;;;;6246305;22;20021;-96
2022/06/26 03:42:38;;;;;;;5.72;5.18;;;17.90;99.90;;;;;;6248695;22;20021;-96
2022/06/26 03:45:05;;;;;;;6.40;5.47;;;17.60;99.90;;;;;;6250197;22;20051;-96
2022/06/26 03:47:31;;;;;;;6.07;4.70;;;17.70;99.90;;;;;;6249143;22;20387;-96
2022/06/26 03:49:57;;;;;;;5.57;4.95;;;17.90;99.90;;;;;;6247785;22;20034;-95
2022/06/26 03:52:24;;;;;;;5.38;4.75;;;17.70;99.90;;;;;;6255068;22;20144;-96
2022/06/26 03:54:53;;;;;;;7.80;5.95;;;18.00;99.90;;;;;;6276555;22;20114;-96
2022/06/26 03:57:25;;;;;;;7.15;5.95;;;18.00;99.90;;;;;;6267463;22;20528;-96
2022/06/26 03:59:58;;;;;;;6.50;5.85;;;18.40;99.90;;;;;;6246301;22;20000;-96
2022/06/26 04:02:25;;;;;;;7.03;5.45;;;18.00;99.90;;;;;;6268695;22;20438;-96
2022/06/26 04:04:51;;;;;;;8.32;5.93;;;18.10;99.90;;;;;;6242089;22;20012;-96
2022/06/26 04:07:18;;;;;;;8.40;5.63;;;18.10;99.90;;;;;;6241748;22;20000;-96
2022/06/26 04:09:44;;;;;;;6.25;5.25;;;18.00;99.90;;;;;;6215956;22;20008;-96
2022/06/26 04:12:13;;;;;;;7.00;5.32;;;18.30;99.90;;;;;;6240665;22;20398;-96
2022/06/26 04:14:41;;;;;;;6.25;5.13;;;18.20;99.90;;;;;;6243604;22;20039;-96
2022/06/26 04:17:09;;;;;;;5.90;5.20;;;18.10;99.90;;;;;;6241465;22;20027;-96
2022/06/26 04:19:44;;;;;;;7.30;5.80;;;18.30;99.90;;;;;;6243246;22;20046;-95
2022/06/26 04:22:10;;;;;;;7.43;5.80;;;18.10;99.90;;;;;;6212893;22;20047;-96
2022/06/26 04:24:38;;;;;;;5.55;4.95;;;18.20;99.90;;;;;;6214971;22;20024;-96
2022/06/26 04:27:05;;;;;;;6.32;4.90;;;18.40;99.90;;;;;;6263760;22;20041;-96
2022/06/26 04:29:31;;;;;;;5.93;4.88;;;18.20;99.90;;;;;;6240693;22;20015;-96
2022/06/26 04:31:57;;;;;;;5.03;4.53;;;18.10;99.90;;;;;;6233432;22;20027;-96
2022/06/26 04:34:23;;;;;;;5.57;5.05;;;18.50;99.90;;;;;;6233345;22;20101;-95
2022/06/26 04:36:49;;;;;;;5.88;4.95;;;18.30;99.90;;;;;;6235432;22;20012;-96
2022/06/26 04:39:16;;;;;;;5.43;4.93;;;18.10;99.90;;;;;;6237628;22;20016;-96
2022/06/26 04:41:42;;;;;;;5.05;4.53;;;18.30;99.90;;;;;;6262164;22;20039;-96
2022/06/26 04:44:10;;;;;;;5.53;4.90;;;18.60;99.90;;;;;;6208181;22;20015;-96
2022/06/26 04:46:39;;;;;;;6.05;4.95;;;18.40;99.90;;;;;;6269440;22;20011;-96
2022/06/26 04:49:05;;;;;;;5.50;5.00;;;18.40;99.90;;;;;;6266189;22;20043;-96
2022/06/26 04:51:34;;;;;;;5.95;5.15;;;18.40;99.90;;;;;;6233674;22;20020;-95
2022/06/26 04:54:06;;;;;;;5.75;4.90;;;18.60;99.90;;;;;;6215518;22;20015;-96
2022/06/26 04:56:32;;;;;;;7.57;5.00;;;18.70;99.90;;;;;;6233169;22;20030;-95
2022/06/26 04:58:59;;;;;;;6.07;5.30;;;18.70;99.90;;;;;;6232608;22;20021;-95
2022/06/26 05:01:26;;;;;;;7.00;5.10;;;18.80;99.90;;;;;;6233936;22;20023;-95
2022/06/26 05:03:53;;;;;;;6.03;4.97;;;18.90;99.90;;;;;;6234096;22;20062;-96
2022/06/26 05:06:19;;;;;;;7.63;4.93;;;18.60;99.90;;;;;;6242594;22;20063;-95
2022/06/26 05:08:45;;;;;;;5.22;4.70;;;18.90;99.90;;;;;;6235098;22;20011;-95
2022/06/26 05:11:13;;;;;;;5.20;4.68;;;18.80;99.90;;;;;;6267067;22;20047;-96
2022/06/26 05:13:39;;;;;;;7.72;4.88;;;19.00;99.90;;;;;;6249306;22;20043;-96
2022/06/26 05:16:06;;;;;;;6.13;4.30;;;18.90;99.90;;;;;;6242359;22;20350;-95
2022/06/26 05:18:32;;;;;;;6.97;4.57;;;19.00;99.90;;;;;;6210166;22;20023;-95
2022/06/26 05:21:02;;;;;;;7.00;5.18;;;19.00;99.90;;;;;;6244943;22;20018;-95
2022/06/26 05:23:29;;;;;;;5.15;4.70;;;19.00;99.90;;;;;;6274387;22;20047;-94
2022/06/26 05:25:55;;;;;;;5.65;4.32;;;19.10;99.90;;;;;;6224969;22;20027;-94
2022/06/26 05:28:39;;;;;;;4.70;4.25;;;19.00;99.90;;;;;;6237697;22;20016;-96
2022/06/26 05:31:05;;;;;;;5.38;4.35;;;18.90;99.90;;;;;;6236577;22;20030;-95
2022/06/26 05:33:32;;;;;;;4.88;4.35;;;19.30;99.90;;;;;;6238413;22;20449;-95
2022/06/26 05:35:58;;;;;;;6.30;4.65;;;19.00;99.90;;;;;;6262357;22;20016;-94
2022/06/26 05:38:24;;;;;;;5.35;4.60;;;19.40;99.90;;;;;;6216876;22;20452;-95
2022/06/26 05:40:50;;;;;;;4.90;4.40;;;19.10;99.90;;;;;;6243635;22;20087;-96
2022/06/26 05:43:16;;;;;;;6.25;4.30;;;19.20;99.90;;;;;;6244346;22;20053;-96
2022/06/26 05:45:46;;;;;;;9.10;4.50;;;19.10;99.90;;;;;;6248402;22;20049;-94
2022/06/26 05:48:17;;;;;;;5.30;4.78;;;19.10;99.90;;;;;;6275104;22;20030;-94
2022/06/26 05:50:43;;;;;;;4.93;4.43;;;19.40;99.90;;;;;;6244483;22;20007;-95
2022/06/26 05:53:11;;;;;;;5.32;4.28;;;19.00;99.90;;;;;;6272266;22;20022;-95
2022/06/26 05:55:38;;;;;;;5.20;4.65;;;19.10;99.90;;;;;;6267817;22;20007;-94
2022/06/26 05:58:06;;;;;;;7.15;4.78;;;19.20;99.90;;;;;;6248986;22;20071;-95
2022/06/26 06:00:51;;;;;;;5.07;4.50;;;19.10;99.90;;;;;;6252548;22;20063;-94
2022/06/26 06:03:39;;;;;;;6.22;4.55;;;20.00;99.90;;;;;;6289472;22;20077;-95
2022/06/26 06:06:14;;;;;;;5.32;4.55;;;19.50;99.90;;;;;;6286169;22;20039;-94
2022/06/26 06:08:40;;;;;;;5.80;5.20;;;19.50;99.90;;;;;;6214292;22;20030;-95
2022/06/26 06:11:06;;;;;;;5.78;5.15;;;19.60;99.90;;;;;;6239709;22;20012;-94
2022/06/26 06:13:45;;;;;;;5.82;5.05;;;19.40;99.90;;;;;;6236466;22;20008;-96
2022/06/26 06:16:16;;;;;;;8.23;5.50;;;19.20;99.90;;;;;;6289625;22;20200;-95
2022/06/26 06:18:44;;;;;;;5.60;5.10;;;19.70;99.90;;;;;;6215975;22;20239;-94
2022/06/26 06:21:12;;;;;;;6.88;6.03;;;19.40;99.90;;;;;;6268399;22;20011;-95
2022/06/26 06:23:49;;;;;;;6.65;6.00;;;19.60;99.90;;;;;;6238589;22;20012;-96
2022/06/26 06:26:16;;;;;;;6.30;5.70;;;19.80;99.90;;;;;;6270900;22;20022;-95
2022/06/26 06:29:01;;;;;;;6.68;6.07;;;19.50;99.90;;;;;;6248757;22;20067;-95
2022/06/26 06:31:29;;;;;;;7.93;6.90;;;19.70;99.90;;;;;;6251330;22;20054;-95
2022/06/26 06:34:01;;;;;;;7.10;6.40;;;20.10;99.90;;;;;;6272007;22;20044;-94
2022/06/26 06:36:27;;;;;;;10.68;7.72;;;20.00;99.90;;;;;;6297414;22;20016;-95
2022/06/26 06:38:54;;;;;;;9.18;8.27;;;19.80;99.90;;;;;;6238568;22;20015;-95
2022/06/26 06:41:51;;;;;;;10.20;8.60;;;19.70;99.90;;;;;;6226516;22;20006;-95
2022/06/26 06:44:33;;;;;;;9.10;8.05;;;19.90;99.90;;;;;;6298911;22;20059;-94
2022/06/26 06:47:00;;;;;;;10.02;7.85;;;20.20;99.90;;;;;;6270113;22;19996;-96
2022/06/26 06:49:28;;;;;;;10.57;9.18;;;20.30;99.90;;;;;;6265263;22;20012;-95
2022/06/26 06:52:02;;;;;;;11.50;10.40;;;20.10;99.90;;;;;;6266311;22;20042;-96
2022/06/26 06:54:28;;;;;;;;;;;19.80;99.90;;;;;;6255887;22;21040;-95
2022/06/26 06:56:55;;;;;;;12.27;10.65;;;20.10;99.90;;;;;;6249124;22;19911;-95
2022/06/26 06:59:21;;;;;;;12.07;10.75;;;19.80;99.90;;;;;;6270823;22;20070;-94
2022/06/26 07:01:52;;;;;;;13.52;12.13;;;19.90;99.90;;;;;;6273899;22;20072;-94
2022/06/26 07:04:19;;;;;;;13.95;12.55;;;19.80;99.90;;;;;;6245367;22;20035;-95
2022/06/26 07:06:48;;;;;;;15.80;12.80;;;20.10;99.90;;;;;;6244259;22;20018;-95
2022/06/26 07:09:14;;;;;;;14.23;12.80;;;20.00;99.90;;;;;;6264047;22;20018;-95
2022/06/26 07:11:42;;;;;;;14.50;13.05;;;19.80;99.90;;;;;;6216217;22;20034;-95
2022/06/26 07:14:11;;;;;;;14.75;12.98;;;20.20;99.90;;;;;;6262477;22;20084;-94
2022/06/26 07:16:37;;;;;;;14.20;12.63;;;19.50;99.90;;;;;;6212425;22;20019;-95
2022/06/26 07:19:04;;;;;;;13.50;12.07;;;19.60;99.90;;;;;;6217525;22;20015;-93
2022/06/26 07:21:31;;;;;;;15.05;13.52;;;19.60;99.90;;;;;;6274399;22;20022;-94
2022/06/26 07:23:58;;;;;;;14.90;13.40;;;19.90;99.90;;;;;;6269381;22;20082;-94
2022/06/26 07:26:24;;;;;;;15.25;13.60;;;19.70;99.90;;;;;;6237648;22;20011;-94
2022/06/26 07:28:51;;;;;;;15.88;13.45;;;20.00;99.90;;;;;;6240439;22;20008;-96
2022/06/26 07:31:18;;;;;;;15.20;13.52;;;20.00;99.90;;;;;;6242444;22;20067;-95
2022/06/26 07:36:41;;;;;;;17.30;14.35;;;20.00;99.90;;;;;;6239050;22;20019;-92
2022/06/26 07:39:09;;;;;;;15.02;13.43;;;19.60;99.90;;;;;;6242654;22;20019;-96
2022/06/26 07:41:35;;;;;;;15.77;14.25;;;19.60;99.90;;;;;;6242518;22;20015;-96
2022/06/26 07:44:01;;;;;;;14.88;13.48;;;19.70;99.90;;;;;;6268066;22;20011;-95
2022/06/26 07:46:27;;;;;;;16.08;14.48;;;19.50;99.90;;;;;;6267021;22;20337;-95
2022/06/26 07:48:54;;;;;;;14.88;13.38;;;19.50;99.90;;;;;;6268004;22;20018;-94
2022/06/26 07:51:21;;;;;;;16.80;15.00;;;19.70;99.90;;;;;;6215725;22;20011;-93
2022/06/26 07:53:46;;;;;;;16.52;14.80;;;19.90;99.90;;;;;;6213942;22;20049;-95
2022/06/26 07:56:13;;;;;;;16.52;14.82;;;19.90;99.90;;;;;;6205869;22;20024;-95
2022/06/26 07:58:42;;;;;;;16.20;14.60;;;19.80;99.90;;;;;;6232303;22;20019;-94
2022/06/26 08:01:08;;;;;;;17.08;15.38;;;19.80;99.90;;;;;;6203431;22;20043;-92
2022/06/26 08:03:34;;;;;;;15.25;13.75;;;19.80;99.90;;;;;;6252012;22;20023;-93
2022/06/26 08:06:00;;;;;;;15.77;13.90;;;19.90;99.90;;;;;;6204278;22;20012;-92
2022/06/26 08:08:26;;;;;;;16.42;14.57;;;19.90;99.90;;;;;;6203711;22;20170;-92
2022/06/26 08:10:52;;;;;;;15.77;14.13;;;19.80;99.90;;;;;;6202011;22;20073;-93
2022/06/26 08:13:18;;;;;;;16.75;14.98;;;19.90;99.90;;;;;;6226479;22;20019;-94
2022/06/26 08:15:44;;;;;;;16.90;15.20;;;19.70;99.90;;;;;;6239263;22;20015;-94
2022/06/26 08:18:13;;;;;;;16.48;14.77;;;19.60;99.90;;;;;;6258222;22;20100;-93
2022/06/26 08:20:40;;;;;;;17.20;15.40;;;19.90;99.90;;;;;;6231428;22;20016;-96
2022/06/26 08:23:07;;;;;;;18.02;14.98;;;20.10;99.90;;;;;;6243921;22;20037;-96
2022/06/26 08:25:35;;;;;;;16.08;14.38;;;20.10;99.90;;;;;;6271648;22;20437;-94
2022/06/26 08:28:02;;;;;;;16.30;14.13;;;20.40;99.90;;;;;;6234215;22;20086;-95
2022/06/26 08:30:30;;;;;;;12.85;11.60;;;20.60;99.90;;;;;;6232135;22;20016;-90
2022/06/26 08:32:58;;;;;;;13.23;11.80;;;20.70;99.90;;;;;;6261806;22;20046;-95
2022/06/26 08:35:27;;;;;;;12.73;11.50;;;20.50;99.90;;;;;;6217775;22;20014;-95
2022/06/26 08:37:54;;;;;;;13.02;11.65;;;20.20;99.90;;;;;;6261909;22;20008;-94
2022/06/26 08:40:21;;;;;;;13.10;11.75;;;20.50;99.90;;;;;;6264027;22;20060;-94
2022/06/26 08:42:53;;;;;;;14.68;10.88;;;20.60;99.90;;;;;;6243839;22;20021;-94
2022/06/26 08:45:23;;;;;;;12.27;10.95;;;20.90;99.90;;;;;;6268842;22;20022;-94
2022/06/26 08:47:51;;;;;;;11.25;10.15;;;20.90;99.90;;;;;;6260210;22;20014;-93
2022/06/26 08:50:23;;;;;;;11.60;10.35;;;21.30;99.90;;;;;;6241784;22;20012;-94
2022/06/26 08:52:51;;;;;;;10.30;9.30;;;20.90;99.90;;;;;;6242575;22;20019;-95
2022/06/26 08:55:19;;;;;;;11.30;10.10;;;21.40;99.90;;;;;;6263291;22;20024;-95
2022/06/26 08:57:47;;;;;;;13.75;9.55;;;21.60;99.90;;;;;;6237322;22;20019;-93
2022/06/26 09:00:15;;;;;;;10.90;9.50;;;21.50;99.90;;;;;;6216917;22;20020;-95
2022/06/26 09:02:43;;;;;;;12.50;10.10;;;21.20;99.90;;;;;;6265384;22;20054;-93
2022/06/26 09:05:13;;;;;;;11.23;10.07;;;20.20;99.90;;;;;;6242527;22;20015;-95
2022/06/26 09:07:52;;;;;;;11.35;10.05;;;21.00;99.90;;;;;;6270330;22;20039;-96
2022/06/26 09:10:19;;;;;;;10.18;9.10;;;20.90;99.90;;;;;;6259996;22;20007;-94
2022/06/26 09:12:53;;;;;;;9.35;8.38;;;21.40;99.90;;;;;;6237686;22;20074;-94
2022/06/26 09:15:20;;;;;;;;;;;21.50;99.90;;;;;;6262907;22;20337;-95
2022/06/26 09:18:05;;;;;;;7.13;6.43;;;21.70;99.90;;;;;;6239225;22;19976;-95
2022/06/26 09:20:36;;;;;;;7.93;7.10;;;22.10;99.90;;;;;;6261905;22;20012;-94
2022/06/26 09:23:03;;;;;;;6.70;5.97;;;22.30;99.90;;;;;;6264375;22;20015;-94
2022/06/26 09:25:56;;;;;;;5.97;5.07;;;22.70;99.90;;;;;;6218441;22;20019;-95
2022/06/26 09:28:25;;;;;;;6.38;5.78;;;22.40;99.90;;;;;;6234231;22;20035;-94
2022/06/26 09:31:36;;;;;;;6.55;5.13;;;22.80;99.90;;;;;;6209195;23;20019;-96
2022/06/26 09:34:03;;;;;;;5.50;5.00;;;23.30;99.90;;;;;;6263655;22;20016;-96
2022/06/26 09:36:33;;;;;;;5.03;3.80;;;23.20;99.90;;;;;;6288008;22;20016;-95
2022/06/26 09:39:00;;;;;;;4.13;3.42;;;23.00;99.90;;;;;;6261900;22;20453;-95
2022/06/26 09:41:31;;;;;;;4.20;3.50;;;23.30;99.90;;;;;;6236983;22;20016;-95
2022/06/26 09:43:57;;;;;;;4.18;3.05;;;23.60;99.90;;;;;;6256542;22;20015;-94
2022/06/26 09:46:33;;;;;;;4.72;3.17;;;24.20;99.90;;;;;;6206577;22;20461;-95
2022/06/26 09:49:24;;;;;;;2.92;2.55;;;24.10;99.90;;;;;;6256875;22;20016;-95
2022/06/26 09:56:09;;;;;;;;;;;;;;;;;;;;;
2022/06/26 10:07:22;;;;;;;4.00;3.55;;;24.30;99.90;;;;;;6212943;23;20016;-88
2022/06/26 10:10:04;;;;;;;4.32;3.88;;;23.90;99.90;;;;;;6163469;23;20075;-88
2022/06/26 10:13:02;;;;;;;;;;;;;;;;;;;;;
2022/06/26 10:16:05;;;;;;;;;;;;;;;;;;;;;
2022/06/26 10:19:45;;;;;;;5.07;3.70;;;23.10;99.90;;;;;;6123521;23;20399;-91
2022/06/26 10:22:13;;;;;;;4.00;3.70;;;23.50;99.90;;;;;;6132637;23;20122;-90
2022/06/26 10:24:53;;;;;;;5.32;4.53;;;23.10;99.90;;;;;;6187890;23;20069;-88
2022/06/26 10:27:31;;;;;;;5.25;4.40;;;22.50;99.90;;;;;;6189242;23;20108;-90
2022/06/26 10:30:15;;;;;;;4.80;4.10;;;22.80;99.90;;;;;;6190432;23;20012;-91
2022/06/26 10:33:01;;;;;;;4.32;3.70;;;22.70;99.90;;;;;;6189629;23;20501;-88
2022/06/26 10:35:42;;;;;;;3.67;3.38;;;22.90;99.90;;;;;;6210353;23;20023;-91
2022/06/26 10:38:25;;;;;;;4.28;3.42;;;23.40;99.90;;;;;;6188242;23;20441;-89
2022/06/26 10:44:50;;;;;;;3.75;2.95;;;23.60;99.90;;;;;;6106890;23;20025;-89
2022/06/26 10:47:17;;;;;;;3.42;2.75;;;23.30;99.90;;;;;;6187426;23;20013;-89
2022/06/26 10:49:51;;;;;;;3.72;3.13;;;23.40;99.90;;;;;;6185900;23;20690;-89
2022/06/26 10:52:47;;;;;;;3.20;2.45;;;23.10;99.90;;;;;;6187229;23;20512;-88
2022/06/26 10:55:13;;;;;;;2.83;2.53;;;22.90;99.90;;;;;;6186844;23;20592;-89
2022/06/26 10:57:39;;;;;;;3.28;2.60;;;23.00;99.90;;;;;;6191003;23;20070;-88
2022/06/26 11:00:08;;;;;;;4.95;2.80;;;23.10;99.90;;;;;;6190341;23;20016;-86
2022/06/26 11:02:44;;;;;;;2.38;2.10;;;22.90;99.90;;;;;;6189586;23;20460;-89
2022/06/26 11:05:22;;;;;;;3.38;2.10;;;22.80;99.90;;;;;;6215460;23;20067;-88
2022/06/26 11:07:55;;;;;;;2.95;2.20;;;22.90;99.90;;;;;;6190996;23;20544;-86
2022/06/26 11:21:30;;;;;;;3.72;2.88;;;23.00;99.90;;;;;;6219893;23;20080;-87
2022/06/26 11:24:05;;;;;;;3.00;2.58;;;22.90;99.90;;;;;;6190878;23;20078;-89
2022/06/26 11:26:37;;;;;;;3.50;3.00;;;23.10;99.90;;;;;;6191463;23;20013;-88
2022/06/26 11:29:22;;;;;;;4.20;2.90;;;23.10;99.90;;;;;;6191848;23;20013;-87
2022/06/26 11:31:51;;;;;;;3.45;2.80;;;23.10;99.90;;;;;;6166538;23;20078;-87
2022/06/26 11:34:17;;;;;;;3.22;2.75;;;23.50;99.90;;;;;;6190688;23;20017;-88
2022/06/26 11:36:54;;;;;;;3.38;2.60;;;23.80;99.90;;;;;;6189560;23;20110;-87
2022/06/26 11:39:24;;;;;;;2.85;2.40;;;24.10;99.90;;;;;;6189597;23;20095;-88
2022/06/26 11:41:53;;;;;;;3.47;2.30;;;23.80;99.90;;;;;;6190815;23;20055;-86
2022/06/26 11:44:19;;;;;;;2.75;2.10;;;23.50;99.90;;;;;;6164629;23;20055;-88
2022/06/26 11:46:45;;;;;;;3.22;2.30;;;23.50;99.90;;;;;;6190734;23;20013;-87
2022/06/26 11:49:13;;;;;;;3.50;2.28;;;23.50;99.90;;;;;;6189993;23;20051;-87
2022/06/26 11:51:39;;;;;;;4.03;2.20;;;23.10;99.90;;;;;;6190237;23;20008;-87
2022/06/26 11:54:08;;;;;;;3.92;2.33;;;23.30;99.90;;;;;;6214284;23;20027;-88
2022/06/26 11:56:37;;;;;;;4.07;2.45;;;23.20;99.90;;;;;;6215246;23;20027;-86
2022/06/26 11:59:03;;;;;;;3.38;2.20;;;23.70;99.90;;;;;;6190392;23;20012;-87
2022/06/26 12:01:36;;;;;;;3.47;2.10;;;23.90;99.90;;;;;;6194213;23;20020;-88
2022/06/26 12:04:04;;;;;;;2.13;1.95;;;24.20;99.90;;;;;;6170126;23;20012;-87
2022/06/26 12:06:36;;;;;;;3.22;2.00;;;24.20;99.90;;;;;;6194942;23;20012;-87
2022/06/26 12:09:20;;;;;;;3.00;1.80;;;24.30;99.90;;;;;;6191459;23;20012;-87
2022/06/26 12:11:49;;;;;;;3.20;1.65;;;24.20;99.90;;;;;;6198711;23;20107;-87
2022/06/26 12:14:20;;;;;;;2.50;1.85;;;24.00;99.90;;;;;;6194899;23;20075;-87
2022/06/26 12:16:54;;;;;;;3.70;1.90;;;23.90;99.90;;;;;;6191903;23;20017;-90
2022/06/26 12:19:24;;;;;;;3.45;1.90;;;24.20;99.90;;;;;;6191446;23;20082;-90
2022/06/26 12:21:53;;;;;;;2.35;1.80;;;23.90;99.90;;;;;;6190416;23;20035;-87
2022/06/26 12:24:19;;;;;;;3.50;1.90;;;24.30;99.90;;;;;;6215604;23;20016;-87
2022/06/26 12:26:45;;;;;;;3.42;1.95;;;24.10;99.90;;;;;;6196507;23;20027;-88
2022/06/26 12:29:14;;;;;;;2.60;1.90;;;24.10;99.90;;;;;;6191250;23;20052;-85
2022/06/26 12:31:40;;;;;;;3.60;1.70;;;24.10;99.90;;;;;;6215278;23;20365;-85
2022/06/26 12:34:07;;;;;;;4.25;2.13;;;23.90;99.90;;;;;;6189646;23;20091;-88
2022/06/26 12:36:33;;;;;;;2.67;1.90;;;23.90;99.90;;;;;;6188846;23;20361;-88
2022/06/26 12:39:00;;;;;;;2.38;1.98;;;23.70;99.90;;;;;;6190439;23;20016;-87
2022/06/26 12:41:26;;;;;;;2.45;1.58;;;24.10;99.90;;;;;;6188636;23;20476;-87
2022/06/26 12:43:58;;;;;;;3.67;2.03;;;24.30;99.90;;;;;;6189614;23;20013;-87
2022/06/26 12:46:25;;;;;;;2.17;1.80;;;24.20;99.90;;;;;;6191146;23;20051;-89
2022/06/26 12:48:50;;;;;;;5.00;1.75;;;23.80;99.90;;;;;;6190659;23;20034;-87
2022/06/26 12:51:17;;;;;;;2.88;2.20;;;23.80;99.90;;;;;;6163324;23;20095;-87
2022/06/26 12:53:43;;;;;;;3.67;2.10;;;23.60;99.90;;;;;;6190714;23;20031;-87
2022/06/26 12:56:11;;;;;;;3.05;1.73;;;23.60;99.90;;;;;;6189900;23;20016;-86
2022/06/26 12:58:37;;;;;;;4.32;2.22;;;23.90;99.90;;;;;;6189223;23;20390;-89
2022/06/26 13:01:05;;;;;;;3.88;2.20;;;23.70;99.90;;;;;;6189645;23;20016;-89
2022/06/26 13:03:31;;;;;;;4.47;2.30;;;23.80;99.90;;;;;;6187820;23;20016;-89
2022/06/26 13:05:57;;;;;;;4.57;1.95;;;23.60;99.90;;;;;;6191588;23;20013;-87
2022/06/26 13:08:23;;;;;;;3.25;2.03;;;23.50;99.90;;;;;;6164650;23;20044;-87
2022/06/26 13:10:52;;;;;;;2.67;2.05;;;23.60;99.90;;;;;;6190405;23;20009;-89
2022/06/26 13:13:18;;;;;;;2.17;1.95;;;23.90;99.90;;;;;;6166098;23;20087;-88
2022/06/26 13:15:44;;;;;;;3.00;2.13;;;23.60;99.90;;;;;;6164197;23;20098;-88
2022/06/26 13:18:10;;;;;;;3.88;1.95;;;23.40;99.90;;;;;;6189264;23;20024;-86
2022/06/26 13:20:35;;;;;;;5.43;2.30;;;23.10;99.90;;;;;;6187836;23;20019;-86
2022/06/26 13:23:02;;;;;;;4.63;2.20;;;23.00;99.90;;;;;;6189043;23;20088;-85
2022/06/26 13:25:28;;;;;;;2.85;2.10;;;23.00;99.90;;;;;;6214459;23;20500;-86
2022/06/26 13:27:54;;;;;;;3.83;2.03;;;23.00;99.90;;;;;;6189153;23;20063;-85
2022/06/26 13:30:20;;;;;;;3.53;2.05;;;23.00;99.90;;;;;;6189980;23;20017;-86
2022/06/26 13:32:46;;;;;;;2.63;1.90;;;22.90;99.90;;;;;;6166349;23;20013;-87
2022/06/26 13:35:12;;;;;;;4.85;2.60;;;23.00;99.90;;;;;;6167209;23;20342;-88
2022/06/26 13:37:40;;;;;;;2.63;1.98;;;22.90;99.90;;;;;;6191243;23;20177;-86
2022/06/26 13:40:07;;;;;;;3.58;2.40;;;22.90;99.90;;;;;;6190109;23;20020;-91
2022/06/26 13:42:32;;;;;;;3.03;2.15;;;22.80;99.90;;;;;;6189137;23;20075;-89
2022/06/26 13:44:58;;;;;;;5.75;2.30;;;22.90;99.90;;;;;;6189196;23;20047;-87
2022/06/26 13:47:24;;;;;;;5.32;2.10;;;23.00;99.90;;;;;;6188045;23;20016;-87
2022/06/26 13:49:49;;;;;;;3.30;2.25;;;22.90;99.90;;;;;;6164961;23;20012;-87
2022/06/26 13:52:16;;;;;;;3.40;2.30;;;22.50;99.90;;;;;;6164580;23;20374;-88
2022/06/26 13:54:44;;;;;;;4.50;2.20;;;22.60;99.90;;;;;;6189678;23;20449;-88